Time;durP1;ratioP1;P1;durP2;ratioP2;P2;SDS_P1;SDS_P2;PMS_P1;PMS_P2;Temp;Humidity;BMP_temperature;BMP_pressure;BME280_temperature;BME280_humidity;BME280_pressure;Samples;Min_cycle;Max_cycle;Signal;HPM_P1;HPM_P2
2023/05/13 00:02:05;;;;;;;1.20;1.20;;;15.40;42.60;;;;;;10493218;28;20220;-71
2023/05/13 00:07:08;;;;;;;1.30;1.20;;;15.40;42.60;;;;;;10494996;28;20584;-70
2023/05/13 00:12:11;;;;;;;1.40;1.30;;;15.40;42.70;;;;;;10496661;28;20239;-69
2023/05/13 00:17:16;;;;;;;1.37;1.20;;;15.40;42.70;;;;;;10498237;28;20720;-69
2023/05/13 00:22:19;;;;;;;1.20;1.10;;;15.40;42.70;;;;;;10497193;28;20227;-69
2023/05/13 00:27:22;;;;;;;1.57;1.47;;;15.30;42.60;;;;;;10492476;28;20228;-69
2023/05/13 00:32:27;;;;;;;2.10;1.50;;;15.30;42.70;;;;;;10496275;28;20238;-69
2023/05/13 00:37:30;;;;;;;1.70;1.60;;;15.30;42.60;;;;;;10496802;28;23629;-69
2023/05/13 00:42:34;;;;;;;2.37;1.50;;;15.30;42.60;;;;;;10494574;28;20235;-69
2023/05/13 00:47:39;;;;;;;1.50;1.40;;;15.30;42.60;;;;;;10496965;28;20239;-69
2023/05/13 00:52:43;;;;;;;1.60;1.50;;;15.20;42.60;;;;;;10492740;28;20232;-69
2023/05/13 00:57:46;;;;;;;1.60;1.50;;;15.20;42.70;;;;;;10493255;28;20238;-69
2023/05/13 01:02:57;;;;;;;1.43;1.33;;;15.20;42.70;;;;;;10491693;28;20234;-70
2023/05/13 01:08:07;;;;;;;1.70;1.60;;;15.20;42.90;;;;;;10490014;28;20239;-69
2023/05/13 01:13:13;;;;;;;2.00;1.50;;;15.10;42.80;;;;;;10487809;28;20231;-69
2023/05/13 01:23:27;;;;;;;1.90;1.80;;;15.10;42.80;;;;;;10397771;28;20634;-69
2023/05/13 01:28:30;;;;;;;1.73;1.63;;;15.10;42.90;;;;;;10401694;28;20237;-68
2023/05/13 01:33:34;;;;;;;1.53;1.53;;;15.00;42.80;;;;;;10400788;28;20305;-69
2023/05/13 01:38:40;;;;;;;1.90;1.80;;;15.00;42.80;;;;;;10401682;28;20240;-69
2023/05/13 01:43:43;;;;;;;2.57;1.50;;;15.00;42.90;;;;;;10405941;28;20232;-67
2023/05/13 01:48:46;;;;;;;1.80;1.70;;;15.00;42.90;;;;;;10407150;28;20229;-69
2023/05/13 01:53:51;;;;;;;2.20;2.07;;;15.00;42.90;;;;;;10406752;28;20221;-68
2023/05/13 01:58:54;;;;;;;2.00;1.60;;;15.00;42.90;;;;;;10406917;28;20226;-69
2023/05/13 02:03:58;;;;;;;2.20;1.70;;;14.90;42.90;;;;;;10405648;28;20771;-69
2023/05/13 02:09:03;;;;;;;1.73;1.63;;;14.90;42.90;;;;;;10405731;28;20233;-68
2023/05/13 02:14:06;;;;;;;2.07;1.87;;;14.90;42.90;;;;;;10406542;28;20240;-69
2023/05/13 02:19:10;;;;;;;1.87;1.73;;;14.90;42.90;;;;;;10406193;28;20241;-70
2023/05/13 02:24:14;;;;;;;2.27;1.80;;;14.90;42.90;;;;;;10405883;28;20348;-69
2023/05/13 02:29:17;;;;;;;2.10;2.00;;;14.90;42.90;;;;;;10405788;28;20236;-70
2023/05/13 02:34:20;;;;;;;1.93;1.83;;;14.80;43.00;;;;;;10405667;28;20817;-68
2023/05/13 02:39:25;;;;;;;2.03;1.83;;;14.80;43.00;;;;;;10405747;28;20236;-69
2023/05/13 02:44:28;;;;;;;2.20;1.93;;;14.80;43.20;;;;;;10404944;28;20879;-70
2023/05/13 02:49:31;;;;;;;3.17;1.90;;;14.80;43.10;;;;;;10404224;28;20232;-69
2023/05/13 02:54:36;;;;;;;2.10;2.00;;;14.80;43.10;;;;;;10405226;28;20225;-70
2023/05/13 02:59:39;;;;;;;2.10;2.00;;;14.80;43.10;;;;;;10404511;28;20251;-70
2023/05/13 03:04:42;;;;;;;2.20;2.10;;;14.80;43.00;;;;;;10404395;28;20238;-70
2023/05/13 03:09:47;;;;;;;2.30;2.20;;;14.80;42.90;;;;;;10403524;28;20237;-70
2023/05/13 03:14:50;;;;;;;2.13;2.03;;;14.70;42.90;;;;;;10403889;28;20250;-69
2023/05/13 03:19:53;;;;;;;2.10;2.00;;;14.70;43.00;;;;;;10403377;28;20304;-70
2023/05/13 03:24:58;;;;;;;2.20;2.10;;;14.70;43.00;;;;;;10404089;28;20225;-69
2023/05/13 03:30:01;;;;;;;2.40;2.30;;;14.60;43.20;;;;;;10404004;28;20234;-70
2023/05/13 03:35:04;;;;;;;2.30;2.20;;;14.60;43.20;;;;;;10403950;28;20237;-70
2023/05/13 03:40:10;;;;;;;2.60;2.40;;;14.60;43.30;;;;;;10403869;28;20268;-69
2023/05/13 03:45:13;;;;;;;2.60;2.40;;;14.50;43.60;;;;;;10402985;28;20234;-70
2023/05/13 03:50:16;;;;;;;2.43;2.23;;;14.50;43.40;;;;;;10402290;28;20236;-69
2023/05/13 03:55:21;;;;;;;3.30;3.00;;;14.50;43.60;;;;;;10402337;28;20241;-70
2023/05/13 04:00:24;;;;;;;4.50;4.10;;;14.40;43.80;;;;;;10400820;28;20225;-70
2023/05/13 04:05:27;;;;;;;5.53;4.40;;;14.40;43.70;;;;;;10401661;28;20237;-70
2023/05/13 04:10:32;;;;;;;4.43;3.83;;;14.40;43.80;;;;;;10401993;28;20233;-70
2023/05/13 04:15:35;;;;;;;3.30;3.10;;;14.40;43.80;;;;;;10401380;28;20596;-70
2023/05/13 04:20:39;;;;;;;2.83;2.63;;;14.40;43.80;;;;;;10402157;28;20225;-70
2023/05/13 04:25:43;;;;;;;2.90;2.70;;;14.50;43.90;;;;;;10401328;28;20241;-70
2023/05/13 04:30:46;;;;;;;2.80;2.50;;;14.50;43.90;;;;;;10401102;28;20226;-70
2023/05/13 04:35:49;;;;;;;2.77;2.57;;;14.50;43.90;;;;;;10401613;28;20229;-70
2023/05/13 04:40:54;;;;;;;3.47;2.57;;;14.50;43.90;;;;;;10401284;28;20225;-69
2023/05/13 04:45:57;;;;;;;2.87;2.67;;;14.50;43.90;;;;;;10401191;28;20229;-70
2023/05/13 04:51:00;;;;;;;2.70;2.57;;;14.50;43.90;;;;;;10401093;28;20283;-70
2023/05/13 04:56:06;;;;;;;2.50;2.30;;;14.50;43.90;;;;;;10400694;28;20720;-70
2023/05/13 05:01:09;;;;;;;2.50;2.40;;;14.50;43.90;;;;;;10401701;28;20248;-70
2023/05/13 05:06:13;;;;;;;3.10;2.20;;;14.50;43.90;;;;;;10400889;28;20312;-70
2023/05/13 05:11:17;;;;;;;2.67;2.47;;;14.50;43.90;;;;;;10400563;28;20233;-70
2023/05/13 05:16:20;;;;;;;3.03;2.47;;;14.50;43.90;;;;;;10408012;28;20610;-70
2023/05/13 05:21:23;;;;;;;2.60;2.40;;;14.50;43.90;;;;;;10408589;28;20759;-70
2023/05/13 05:26:28;;;;;;;2.50;2.30;;;14.50;43.90;;;;;;10407758;28;20233;-70
2023/05/13 05:31:31;;;;;;;2.60;2.47;;;14.60;44.00;;;;;;10407455;28;20225;-70
2023/05/13 05:36:34;;;;;;;2.87;2.33;;;14.60;44.00;;;;;;10407568;28;20312;-70
2023/05/13 05:41:41;;;;;;;2.63;2.43;;;14.60;44.00;;;;;;10407676;28;20983;-70
2023/05/13 05:46:44;;;;;;;2.93;2.63;;;14.60;44.00;;;;;;10407609;28;20231;-70
2023/05/13 05:51:47;;;;;;;2.70;2.50;;;14.60;44.00;;;;;;10407158;28;20233;-70
2023/05/13 05:56:52;;;;;;;2.83;2.63;;;14.60;44.00;;;;;;10406998;28;20234;-70
2023/05/13 06:01:55;;;;;;;2.80;2.60;;;14.60;44.00;;;;;;10407586;28;20224;-69
2023/05/13 06:06:58;;;;;;;2.70;2.50;;;14.60;44.70;;;;;;10405261;28;20316;-70
2023/05/13 06:12:03;;;;;;;2.90;2.70;;;14.60;44.00;;;;;;10404340;28;20249;-71
2023/05/13 06:17:07;;;;;;;3.03;2.83;;;14.60;44.00;;;;;;10405835;28;20233;-71
2023/05/13 06:22:10;;;;;;;3.20;3.00;;;14.60;44.00;;;;;;10406398;28;20268;-69
2023/05/13 06:27:14;;;;;;;3.73;2.70;;;14.60;44.00;;;;;;10404873;28;20240;-70
2023/05/13 06:32:18;;;;;;;2.50;2.40;;;14.60;44.30;;;;;;10406314;28;20233;-70
2023/05/13 06:37:21;;;;;;;2.87;2.67;;;14.70;44.40;;;;;;10405468;28;20320;-70
2023/05/13 06:42:25;;;;;;;2.73;2.53;;;14.70;44.10;;;;;;10405176;28;20230;-70
2023/05/13 06:47:29;;;;;;;2.83;2.53;;;14.70;44.50;;;;;;10405407;28;20230;-70
2023/05/13 06:52:32;;;;;;;2.90;2.70;;;14.70;44.10;;;;;;10400016;28;20283;-70
2023/05/13 06:57:38;;;;;;;2.80;2.70;;;14.70;44.10;;;;;;10404051;28;20230;-70
2023/05/13 07:02:45;;;;;;;2.90;2.70;;;14.70;44.10;;;;;;10404133;28;20229;-70
2023/05/13 07:07:52;;;;;;;2.80;2.60;;;14.80;44.20;;;;;;10404179;28;20647;-71
2023/05/13 07:12:56;;;;;;;2.70;2.50;;;14.80;44.20;;;;;;10404829;28;20720;-70
2023/05/13 07:18:00;;;;;;;2.53;2.43;;;14.80;44.50;;;;;;10403728;28;20296;-70
2023/05/13 07:23:03;;;;;;;2.60;2.40;;;14.90;44.30;;;;;;10403429;28;20665;-70
2023/05/13 07:28:07;;;;;;;3.00;2.17;;;14.90;44.30;;;;;;10403177;28;20230;-69
2023/05/13 07:33:10;;;;;;;2.50;2.40;;;15.00;44.30;;;;;;10403028;28;20222;-70
2023/05/13 07:38:14;;;;;;;2.50;2.40;;;15.00;44.30;;;;;;10403066;28;20230;-70
2023/05/13 07:43:22;;;;;;;2.23;2.13;;;15.00;44.30;;;;;;10403052;28;20233;-70
2023/05/13 07:48:27;;;;;;;2.50;2.30;;;15.10;44.40;;;;;;10403225;28;20532;-71
2023/05/13 07:53:30;;;;;;;1.93;1.83;;;15.10;44.40;;;;;;10404539;28;20229;-69
2023/05/13 07:58:34;;;;;;;1.97;1.87;;;15.20;44.50;;;;;;10404463;28;20230;-70
2023/05/13 08:03:37;;;;;;;2.20;2.10;;;15.20;44.50;;;;;;10403164;28;20610;-71
2023/05/13 08:08:42;;;;;;;2.10;2.00;;;15.30;44.60;;;;;;10403392;28;20225;-70
2023/05/13 08:13:46;;;;;;;2.57;2.47;;;15.30;44.60;;;;;;10396521;28;20229;-71
2023/05/13 08:18:50;;;;;;;2.30;2.20;;;15.30;44.60;;;;;;10395774;28;20233;-70
2023/05/13 08:23:53;;;;;;;2.20;2.10;;;15.40;44.70;;;;;;10395896;28;20229;-71
2023/05/13 08:28:57;;;;;;;2.97;2.30;;;15.40;44.70;;;;;;10391397;28;20225;-71
2023/05/13 08:34:01;;;;;;;2.17;2.07;;;15.40;44.70;;;;;;10391814;28;20233;-69
2023/05/13 08:39:04;;;;;;;2.57;2.37;;;15.50;44.80;;;;;;10392571;28;20230;-71
2023/05/13 08:44:12;;;;;;;2.40;2.30;;;15.50;44.80;;;;;;10398556;28;20234;-71
2023/05/13 08:49:15;;;;;;;2.20;2.10;;;15.60;44.40;;;;;;10402967;28;20232;-70
2023/05/13 08:54:19;;;;;;;2.13;2.03;;;15.60;44.30;;;;;;10406566;28;20237;-70
2023/05/13 08:59:27;;;;;;;2.27;2.10;;;15.60;44.20;;;;;;10405612;28;20256;-72
2023/05/13 09:04:30;;;;;;;2.30;2.10;;;15.70;44.30;;;;;;10405706;28;20225;-71
2023/05/13 09:09:34;;;;;;;2.70;2.50;;;15.70;44.20;;;;;;10406220;28;20229;-70
2023/05/13 09:14:39;;;;;;;2.63;2.43;;;15.70;44.10;;;;;;10405687;28;20229;-70
2023/05/13 09:19:42;;;;;;;2.30;2.10;;;15.80;44.00;;;;;;10405235;28;21004;-71
2023/05/13 09:24:54;;;;;;;2.10;2.00;;;15.80;44.10;;;;;;10405654;28;20272;-71
2023/05/13 09:30:00;;;;;;;2.00;1.90;;;15.80;43.60;;;;;;10406254;28;20237;-71
2023/05/13 09:35:15;;;;;;;1.90;1.80;;;15.90;43.80;;;;;;10405745;28;20756;-71
2023/05/13 09:40:18;;;;;;;2.03;1.93;;;15.90;43.90;;;;;;10400645;28;20234;-71
2023/05/13 09:45:24;;;;;;;2.13;2.00;;;15.90;43.90;;;;;;10409393;28;20497;-70
2023/05/13 09:50:27;;;;;;;1.90;1.80;;;15.90;43.90;;;;;;10385244;28;20650;-73
2023/05/13 09:55:30;;;;;;;2.20;2.00;;;16.00;43.90;;;;;;10376024;28;20229;-73
2023/05/13 10:00:35;;;;;;;2.03;1.87;;;16.00;43.80;;;;;;10373164;28;20230;-72
2023/05/13 10:05:40;;;;;;;2.30;2.20;;;16.00;43.30;;;;;;10379680;28;20289;-71
2023/05/13 10:10:45;;;;;;;2.10;1.90;;;16.10;43.50;;;;;;10377387;28;20749;-72
2023/05/13 10:15:51;;;;;;;2.30;2.20;;;16.00;43.60;;;;;;10375479;28;21353;-73
2023/05/13 10:20:55;;;;;;;2.60;2.50;;;16.10;43.50;;;;;;10376339;28;20252;-72
2023/05/13 10:25:59;;;;;;;2.07;1.97;;;16.10;43.40;;;;;;10375869;28;20231;-72
2023/05/13 10:31:04;;;;;;;1.93;1.83;;;16.20;43.40;;;;;;10377984;28;20234;-72
2023/05/13 10:36:20;;;;;;;1.90;1.80;;;16.20;43.30;;;;;;10379104;28;20236;-72
2023/05/13 10:41:53;;;;;;;1.97;1.80;;;16.30;43.10;;;;;;10372755;28;20759;-73
2023/05/13 10:46:58;;;;;;;1.87;1.77;;;16.30;42.70;;;;;;10373935;28;20218;-73
2023/05/13 10:52:04;;;;;;;1.90;1.80;;;16.40;43.00;;;;;;10378991;28;20804;-73
2023/05/13 10:57:08;;;;;;;1.90;1.80;;;16.40;42.70;;;;;;10379148;28;20229;-73
2023/05/13 11:02:23;;;;;;;1.77;1.70;;;16.40;43.10;;;;;;10374676;28;20226;-73
2023/05/13 11:07:29;;;;;;;1.60;1.50;;;16.40;42.70;;;;;;10366276;28;21043;-72
2023/05/13 11:12:32;;;;;;;1.70;1.60;;;16.50;44.00;;;;;;10372972;28;20237;-73
2023/05/13 11:17:37;;;;;;;2.00;1.80;;;16.70;43.90;;;;;;10376165;28;20232;-72
2023/05/13 11:22:41;;;;;;;1.20;1.20;;;16.90;43.90;;;;;;10376405;28;20229;-72
2023/05/13 11:27:46;;;;;;;1.30;1.20;;;17.10;43.10;;;;;;10374349;28;20234;-73
2023/05/13 11:32:55;;;;;;;1.67;1.20;;;17.30;42.90;;;;;;10374652;28;20229;-72
2023/05/13 11:38:00;;;;;;;1.03;1.03;;;17.40;41.90;;;;;;10374476;28;20233;-73
2023/05/13 11:43:04;;;;;;;1.20;1.20;;;17.40;42.60;;;;;;10373303;28;20225;-73
2023/05/13 11:48:21;;;;;;;0.90;0.90;;;17.50;42.70;;;;;;10374089;28;20228;-73
2023/05/13 11:53:24;;;;;;;1.10;1.10;;;17.50;41.40;;;;;;10374798;28;20232;-72
2023/05/13 11:58:27;;;;;;;2.33;1.17;;;17.60;42.30;;;;;;10374362;28;20233;-72
2023/05/13 12:03:31;;;;;;;1.10;1.10;;;17.70;42.50;;;;;;10371569;28;20233;-72
2023/05/13 12:08:35;;;;;;;1.00;1.00;;;17.80;41.90;;;;;;10372461;28;20768;-71
2023/05/13 12:13:38;;;;;;;1.20;1.10;;;17.90;42.30;;;;;;10372748;28;20217;-72
2023/05/13 12:18:42;;;;;;;1.03;0.93;;;18.00;42.20;;;;;;10368716;28;20225;-72
2023/05/13 12:23:46;;;;;;;1.03;1.00;;;18.10;41.60;;;;;;10375162;28;20222;-72
2023/05/13 12:28:49;;;;;;;1.00;1.00;;;18.10;41.50;;;;;;10373134;28;20252;-72
2023/05/13 12:33:53;;;;;;;1.20;1.20;;;18.20;41.60;;;;;;10371069;28;20794;-72
2023/05/13 12:38:58;;;;;;;1.00;1.00;;;18.20;41.40;;;;;;10378597;28;20226;-72
2023/05/13 12:44:04;;;;;;;1.00;1.00;;;18.10;41.10;;;;;;10369376;28;20233;-72
2023/05/13 12:49:10;;;;;;;1.00;1.00;;;18.20;41.60;;;;;;10365964;28;20620;-71
2023/05/13 12:54:14;;;;;;;1.30;1.00;;;18.20;41.30;;;;;;10368456;28;20241;-71
2023/05/13 12:59:18;;;;;;;1.00;1.00;;;18.20;41.60;;;;;;10375548;28;20299;-71
2023/05/13 13:04:22;;;;;;;1.00;1.00;;;18.20;41.10;;;;;;10368256;28;20237;-71
2023/05/13 13:09:25;;;;;;;1.10;1.10;;;18.20;41.10;;;;;;10374539;28;20226;-71
2023/05/13 13:14:28;;;;;;;0.90;0.90;;;18.20;41.40;;;;;;10369341;28;20372;-71
2023/05/13 13:19:33;;;;;;;0.83;0.83;;;18.20;41.50;;;;;;10385018;28;20225;-68
2023/05/13 13:24:36;;;;;;;0.90;0.90;;;18.20;41.10;;;;;;10395843;28;20234;-70
2023/05/13 13:29:40;;;;;;;1.00;1.00;;;18.20;41.20;;;;;;10395233;28;20222;-70
2023/05/13 13:34:44;;;;;;;0.90;0.90;;;18.20;41.10;;;;;;10400019;28;20234;-69
2023/05/13 13:39:48;;;;;;;0.93;0.93;;;18.20;41.10;;;;;;10404004;28;20221;-68
2023/05/13 13:44:51;;;;;;;1.10;1.10;;;18.20;41.20;;;;;;10403639;28;20234;-69
2023/05/13 13:49:55;;;;;;;1.10;1.10;;;18.30;41.60;;;;;;10403436;28;20226;-68
2023/05/13 13:54:59;;;;;;;1.00;1.00;;;18.30;41.10;;;;;;10403470;28;20234;-69
2023/05/13 14:00:02;;;;;;;1.13;1.07;;;18.40;41.30;;;;;;10402899;28;20597;-69
2023/05/13 14:05:08;;;;;;;1.20;1.10;;;18.40;41.60;;;;;;10403123;28;20487;-69
2023/05/13 14:10:11;;;;;;;1.13;1.13;;;18.50;41.40;;;;;;10402244;28;20239;-69
2023/05/13 14:15:14;;;;;;;1.00;1.00;;;18.60;41.60;;;;;;10403341;28;20233;-69
2023/05/13 14:20:20;;;;;;;1.07;1.07;;;18.60;41.50;;;;;;10403348;28;20352;-69
2023/05/13 14:25:24;;;;;;;1.23;1.23;;;18.60;40.90;;;;;;10403954;28;20238;-70
2023/05/13 14:30:27;;;;;;;1.40;1.30;;;18.70;41.10;;;;;;10402987;28;20232;-69
2023/05/13 14:35:32;;;;;;;1.27;1.27;;;18.70;40.90;;;;;;10391425;28;20705;-69
2023/05/13 14:40:36;;;;;;;1.20;1.20;;;18.70;40.60;;;;;;10375356;28;20222;-70
2023/05/13 14:45:39;;;;;;;1.30;1.30;;;18.60;40.80;;;;;;10386369;28;20309;-70
2023/05/13 14:50:45;;;;;;;1.17;1.10;;;18.60;41.00;;;;;;10375306;28;20321;-70
2023/05/13 14:55:48;;;;;;;1.20;1.20;;;18.60;40.70;;;;;;10375985;28;20283;-70
2023/05/13 15:00:53;;;;;;;1.40;1.40;;;18.60;40.90;;;;;;10373985;28;20226;-70
2023/05/13 15:05:58;;;;;;;1.50;1.40;;;18.60;41.00;;;;;;10374150;28;20321;-69
2023/05/13 15:11:01;;;;;;;1.20;1.20;;;18.60;40.70;;;;;;10370203;28;20863;-69
2023/05/13 15:16:05;;;;;;;1.93;1.30;;;18.60;40.90;;;;;;10377679;28;20222;-69
2023/05/13 15:21:10;;;;;;;1.20;1.20;;;18.60;41.00;;;;;;10374520;28;20229;-70
2023/05/13 15:26:13;;;;;;;1.17;1.10;;;18.60;40.50;;;;;;10374138;28;20235;-69
2023/05/13 15:31:16;;;;;;;1.23;1.23;;;18.60;40.60;;;;;;10371369;28;20772;-69
2023/05/13 15:36:21;;;;;;;1.40;1.40;;;18.60;40.80;;;;;;10375156;28;20273;-70
2023/05/13 15:41:25;;;;;;;1.10;1.10;;;18.50;40.60;;;;;;10373715;28;20225;-69
2023/05/13 15:46:28;;;;;;;1.30;1.30;;;18.50;40.90;;;;;;10370884;28;21053;-69
2023/05/13 15:51:33;;;;;;;1.13;1.10;;;18.50;41.00;;;;;;10364311;28;20230;-69
2023/05/13 15:56:36;;;;;;;1.30;1.20;;;18.60;41.10;;;;;;10377828;28;20233;-69
2023/05/13 16:01:40;;;;;;;1.20;1.20;;;18.60;41.10;;;;;;10375081;28;20819;-70
2023/05/13 16:06:45;;;;;;;1.10;1.10;;;18.60;41.30;;;;;;10376160;28;20646;-69
2023/05/13 16:11:49;;;;;;;1.40;1.30;;;18.60;41.00;;;;;;10367974;28;20245;-69
2023/05/13 16:16:52;;;;;;;1.10;1.10;;;18.70;41.20;;;;;;10377173;28;20226;-69
2023/05/13 16:21:56;;;;;;;1.10;1.10;;;18.70;41.00;;;;;;10368625;28;20226;-69
2023/05/13 16:26:59;;;;;;;1.00;1.00;;;18.80;40.70;;;;;;10373339;28;20231;-69
2023/05/13 16:32:02;;;;;;;1.27;1.17;;;18.80;41.00;;;;;;10369490;28;20569;-69
2023/05/13 16:37:07;;;;;;;1.33;0.90;;;18.90;40.80;;;;;;10374213;28;20253;-69
2023/05/13 16:42:10;;;;;;;1.23;0.90;;;19.00;40.50;;;;;;10363636;28;20232;-69
2023/05/13 16:47:13;;;;;;;1.10;1.00;;;19.00;40.40;;;;;;10371056;28;20776;-69
2023/05/13 16:52:18;;;;;;;2.70;1.10;;;19.00;40.40;;;;;;10367745;28;20221;-70
2023/05/13 16:57:21;;;;;;;1.13;1.00;;;19.00;40.00;;;;;;10365536;28;22529;-70
2023/05/13 17:02:25;;;;;;;0.97;0.97;;;19.10;40.30;;;;;;10367144;28;20990;-69
2023/05/13 17:07:29;;;;;;;1.37;1.20;;;19.10;40.20;;;;;;10373464;28;20708;-69
2023/05/13 17:12:33;;;;;;;1.00;1.00;;;19.10;39.80;;;;;;10379296;28;20261;-70
2023/05/13 17:17:36;;;;;;;1.30;1.20;;;19.10;40.30;;;;;;10381801;28;20642;-69
2023/05/13 17:22:44;;;;;;;1.20;1.20;;;19.10;40.30;;;;;;10376462;28;20230;-69
2023/05/13 17:27:47;;;;;;;1.37;1.03;;;19.00;40.00;;;;;;10379448;28;20230;-69
2023/05/13 17:32:50;;;;;;;1.20;1.20;;;19.10;40.40;;;;;;10376123;28;20229;-69
2023/05/13 17:37:55;;;;;;;1.30;1.20;;;19.00;40.20;;;;;;10381711;28;20225;-69
2023/05/13 17:43:01;;;;;;;1.57;1.50;;;19.10;40.20;;;;;;10381450;28;20936;-69
2023/05/13 17:48:05;;;;;;;1.40;1.40;;;19.00;40.10;;;;;;10377873;28;20230;-69
2023/05/13 17:53:10;;;;;;;1.40;1.30;;;19.00;40.10;;;;;;10383390;28;20226;-69
2023/05/13 17:58:13;;;;;;;1.50;1.40;;;19.00;39.90;;;;;;10375072;28;20234;-69
2023/05/13 18:03:17;;;;;;;1.73;1.63;;;18.90;39.80;;;;;;10375520;28;20240;-69
2023/05/13 18:08:22;;;;;;;1.80;1.70;;;18.90;39.80;;;;;;10370444;28;20229;-69
2023/05/13 18:13:25;;;;;;;1.60;1.50;;;18.80;39.70;;;;;;10368891;28;20221;-69
2023/05/13 18:18:28;;;;;;;1.60;1.50;;;18.80;39.80;;;;;;10389022;28;20320;-69
2023/05/13 18:23:32;;;;;;;1.80;1.70;;;18.80;40.00;;;;;;10385512;28;20225;-70
2023/05/13 18:28:36;;;;;;;2.97;1.40;;;18.70;39.70;;;;;;10386333;28;20237;-69
2023/05/13 18:33:39;;;;;;;1.90;1.80;;;18.70;39.90;;;;;;10381321;28;20229;-70
2023/05/13 18:38:44;;;;;;;2.00;1.90;;;18.70;39.70;;;;;;10383897;28;20226;-69
2023/05/13 18:43:48;;;;;;;2.67;2.47;;;18.60;39.30;;;;;;10377695;28;20226;-69
2023/05/13 18:48:51;;;;;;;2.80;2.60;;;18.60;39.50;;;;;;10377006;28;20916;-70
2023/05/13 18:53:56;;;;;;;3.00;2.73;;;18.50;39.50;;;;;;10376611;28;20959;-69
2023/05/13 18:58:59;;;;;;;3.53;3.30;;;18.40;39.30;;;;;;10380166;28;20261;-70
2023/05/13 19:04:02;;;;;;;3.87;3.60;;;18.40;39.50;;;;;;10407825;28;20232;-69
2023/05/13 19:09:07;;;;;;;3.67;3.47;;;18.30;39.50;;;;;;10407501;28;20254;-69
2023/05/13 19:14:10;;;;;;;3.67;3.47;;;18.20;40.00;;;;;;10407289;28;20596;-67
2023/05/13 19:19:13;;;;;;;3.87;3.60;;;18.20;39.60;;;;;;10407446;28;20237;-69
2023/05/13 19:24:18;;;;;;;3.73;3.43;;;18.20;40.60;;;;;;10406901;28;20240;-69
2023/05/13 19:29:21;;;;;;;2.97;2.77;;;18.10;39.80;;;;;;10406622;28;20254;-69
2023/05/13 19:34:24;;;;;;;2.77;2.60;;;18.00;39.80;;;;;;10405635;28;20233;-68
2023/05/13 19:39:29;;;;;;;2.60;2.50;;;17.90;40.00;;;;;;10405638;28;20794;-69
2023/05/13 19:44:32;;;;;;;2.40;2.30;;;17.90;40.20;;;;;;10404311;28;20264;-68
2023/05/13 19:49:36;;;;;;;2.33;2.23;;;17.70;40.40;;;;;;10403738;28;20230;-70
2023/05/13 19:54:40;;;;;;;2.30;2.20;;;17.70;40.70;;;;;;10404656;28;20238;-70
2023/05/13 19:59:43;;;;;;;2.03;1.93;;;17.60;41.90;;;;;;10403927;28;20225;-70
2023/05/13 20:04:46;;;;;;;2.20;2.10;;;17.60;41.10;;;;;;10412303;28;20291;-70
2023/05/13 20:09:51;;;;;;;2.47;2.27;;;17.60;41.20;;;;;;10444244;28;20324;-70
2023/05/13 20:14:56;;;;;;;2.73;2.57;;;17.60;41.40;;;;;;10442024;28;20434;-69
2023/05/13 20:20:00;;;;;;;3.93;3.63;;;17.50;41.20;;;;;;10427845;28;21040;-70
2023/05/13 20:25:05;;;;;;;4.07;3.77;;;17.50;41.20;;;;;;10400045;28;20230;-69
2023/05/13 20:30:10;;;;;;;4.40;4.07;;;17.50;41.90;;;;;;10401167;28;20234;-69
2023/05/13 20:35:13;;;;;;;5.00;4.60;;;17.40;41.70;;;;;;10400488;28;20243;-69
2023/05/13 20:40:18;;;;;;;5.07;4.67;;;17.40;41.50;;;;;;10397102;28;20236;-70
2023/05/13 20:45:21;;;;;;;4.70;4.27;;;17.40;41.60;;;;;;10402451;28;20244;-70
2023/05/13 20:50:25;;;;;;;4.60;4.20;;;17.40;41.60;;;;;;10404766;28;20233;-70
2023/05/13 20:55:30;;;;;;;4.70;4.40;;;17.40;41.70;;;;;;10404798;28;20248;-70
2023/05/13 21:00:33;;;;;;;5.00;4.50;;;17.30;41.90;;;;;;10404536;28;20236;-70
2023/05/13 21:05:36;;;;;;;5.00;4.30;;;17.20;41.60;;;;;;10404554;28;20705;-70
2023/05/13 21:10:41;;;;;;;5.07;4.67;;;17.20;41.60;;;;;;10403269;28;20739;-70
2023/05/13 21:15:44;;;;;;;5.50;4.60;;;17.10;41.80;;;;;;10403483;28;20226;-69
2023/05/13 21:20:47;;;;;;;5.23;4.73;;;17.10;41.70;;;;;;10403923;28;20240;-69
2023/05/13 21:25:52;;;;;;;5.10;4.53;;;17.00;41.70;;;;;;10402902;28;20319;-70
2023/05/13 21:30:55;;;;;;;5.07;4.57;;;17.00;42.00;;;;;;10403126;28;20732;-69
2023/05/13 21:35:59;;;;;;;5.27;4.87;;;16.90;41.70;;;;;;10403056;28;20252;-70
2023/05/13 21:41:03;;;;;;;5.53;5.13;;;16.90;41.70;;;;;;10402577;28;20687;-71
2023/05/13 21:46:06;;;;;;;5.07;4.67;;;16.90;42.00;;;;;;10403302;28;20230;-70
2023/05/13 21:51:10;;;;;;;5.00;4.60;;;16.80;41.80;;;;;;10402891;28;20296;-70
2023/05/13 21:56:14;;;;;;;5.37;4.87;;;16.80;41.80;;;;;;10402783;28;20240;-69
2023/05/13 22:01:18;;;;;;;4.93;4.53;;;16.70;41.70;;;;;;10402162;28;20276;-70
2023/05/13 22:06:21;;;;;;;4.60;4.30;;;16.70;41.60;;;;;;10402057;28;20272;-69
2023/05/13 22:11:26;;;;;;;4.60;4.30;;;16.60;41.30;;;;;;10378530;28;20278;-70
2023/05/13 22:16:29;;;;;;;4.83;4.43;;;16.50;41.20;;;;;;10375701;28;20234;-70
2023/05/13 22:21:33;;;;;;;5.30;4.87;;;16.50;41.20;;;;;;10374299;28;20232;-70
2023/05/13 22:26:37;;;;;;;4.93;4.53;;;16.40;41.20;;;;;;10381033;28;20243;-70
2023/05/13 22:31:40;;;;;;;4.90;4.40;;;16.30;41.30;;;;;;10372348;28;20236;-70
2023/05/13 22:36:44;;;;;;;4.90;4.50;;;16.30;41.20;;;;;;10376369;28;20226;-70
2023/05/13 22:41:49;;;;;;;4.97;4.50;;;16.20;41.20;;;;;;10374413;28;20226;-70
2023/05/13 22:46:52;;;;;;;4.57;4.27;;;16.20;41.30;;;;;;10377265;28;20253;-70
2023/05/13 22:51:56;;;;;;;4.00;3.63;;;16.10;41.10;;;;;;10376869;28;20869;-70
2023/05/13 22:57:00;;;;;;;4.83;4.50;;;16.00;41.20;;;;;;10378489;28;20237;-70
2023/05/13 23:02:04;;;;;;;4.67;4.27;;;16.00;41.50;;;;;;10374292;28;20221;-70
2023/05/13 23:07:08;;;;;;;6.37;4.40;;;15.90;41.30;;;;;;10373694;28;20271;-70
2023/05/13 23:12:12;;;;;;;4.30;4.00;;;15.90;41.40;;;;;;10374717;28;20241;-70
2023/05/13 23:17:15;;;;;;;4.13;3.83;;;15.90;41.50;;;;;;10370937;28;20236;-70
2023/05/13 23:22:18;;;;;;;4.83;4.43;;;15.80;41.40;;;;;;10374543;28;20238;-70
2023/05/13 23:27:23;;;;;;;4.97;4.50;;;15.80;41.50;;;;;;10372281;28;20260;-70
2023/05/13 23:32:26;;;;;;;3.87;3.57;;;15.70;41.40;;;;;;10378453;28;20383;-70
2023/05/13 23:37:30;;;;;;;5.07;4.43;;;15.70;41.40;;;;;;10373889;28;20280;-70
2023/05/13 23:42:34;;;;;;;5.10;4.63;;;15.60;41.40;;;;;;10373462;28;20241;-70
2023/05/13 23:47:38;;;;;;;4.27;3.87;;;15.60;41.70;;;;;;10371980;28;20606;-70
2023/05/13 23:52:41;;;;;;;4.30;3.83;;;15.50;41.60;;;;;;10373788;28;20285;-69
2023/05/13 23:57:45;;;;;;;5.10;4.70;;;15.50;41.90;;;;;;10371741;28;20751;-69
